Latest Weather Observations for Strahan

IDT60801

Issued at 11:31 pm EDT Sunday 14 February 2016 (issued every 30 minutes, with the page automatically refreshed every 10 minutes)

About weather observations | Map of weather stations | Latest weather observations for TAS | Other Formats
Station Details ID: 097072 Name: STRAHAN AERODROME Lat: -42.16 Lon: 145.29 Height: 21.0 m
Data from the previous 72 hours. | See also: Recent months at Strahan
Date/Time
EDT
Temp
°C
App
Temp
°C
Dew
Point
Rel
Hum
%
Delta-T
°C
Wind Press
QNH
hPa
Press
MSL
hPa
Rain
since 9 am
mm
Dir
 
Spd
km/h
Gust
km/h
Spd
kts
Gust
kts
14/11:30pm 13.6 9.1 6.2 61 3.5 WSW 19 28 10 15 1010.3 1010.3 3.0
14/11:00pm 12.8 8.4 4.8 58 3.7 W 17 24 9 13 1010.5 1010.5 3.0
14/10:30pm 13.0 8.2 4.7 57 3.8 W 19 26 10 14 1010.7 1010.7 3.0
14/10:00pm 12.9 8.5 4.8 58 3.7 W 17 24 9 13 1010.7 1010.7 3.0
14/09:30pm 13.4 7.7 4.8 56 4.0 W 24 30 13 16 1010.6 1010.6 3.0
14/09:00pm 13.3 8.3 4.7 56 4.0 W 20 33 11 18 1010.2 1010.2 3.0
14/08:30pm 13.5 7.9 5.4 58 3.8 W 24 33 13 18 1010.1 1010.1 3.0
14/08:00pm 13.8 9.5 6.9 63 3.4 W 19 30 10 16 1009.8 1009.8 3.0
14/07:30pm 14.3 9.8 8.5 68 2.9 WSW 22 35 12 19 1009.6 1009.6 3.0
14/07:07pm 13.6 7.7 7.6 67 2.9 WSW 28 48 15 26 1009.4 1009.4 3.0
14/07:00pm 14.6 10.2 8.8 68 2.9 WSW 22 30 12 16 1009.2 1009.2 3.0
14/06:30pm 15.4 9.6 9.3 67 3.1 WSW 30 41 16 22 1008.9 1008.9 3.0
14/06:16pm 15.6 9.8 8.1 61 3.8 W 28 46 15 25 1008.7 1008.7 3.0
14/06:00pm 17.0 10.7 7.4 53 4.8 W 30 39 16 21 1008.6 1008.6 3.0
14/05:30pm 17.2 10.9 7.5 53 4.9 W 30 41 16 22 1008.4 1008.4 3.0
14/05:00pm 16.4 10.1 7.6 56 4.4 W 30 37 16 20 1008.2 1008.2 3.0
14/04:30pm 17.7 10.6 6.6 48 5.5 W 33 46 18 25 1008.0 1008.0 3.0
14/04:00pm 17.1 10.4 8.0 55 4.6 W 33 44 18 24 1007.9 1007.9 3.0
14/03:30pm 17.3 10.6 8.2 55 4.6 W 33 50 18 27 1007.6 1007.6 3.0
14/03:00pm 16.4 9.9 8.9 61 3.9 W 33 44 18 24 1007.3 1007.3 3.0
14/02:30pm 15.9 9.6 9.8 67 3.2 W 33 44 18 24 1006.9 1006.9 3.0
14/02:11pm 17.3 8.8 8.4 56 4.6 W 43 61 23 33 1006.4 1006.4 2.6
14/02:00pm 17.1 9.6 9.5 61 4.0 W 39 50 21 27 1006.3 1006.3 2.6
14/01:30pm 15.7 8.5 10.5 71 2.7 W 39 54 21 29 1006.0 1006.0 2.6
14/01:16pm 15.4 9.6 11.6 78 2.0 W 33 54 18 29 1005.9 1005.9 2.6
14/01:00pm 15.1 9.0 11.9 81 1.7 W 35 48 19 26 1005.8 1005.8 2.6
14/12:47pm 14.6 7.0 11.9 84 1.5 WNW 43 61 23 33 1005.6 1005.6 2.6
14/12:43pm 14.4 6.0 11.2 81 1.7 W 46 63 25 34 1005.5 1005.5 2.6
14/12:36pm 14.3 7.4 11.5 83 1.5 WNW 39 63 21 34 1005.4 1005.4 2.6
14/12:30pm 14.6 7.2 12.5 87 1.1 W 43 54 23 29 1005.2 1005.2 2.6
14/12:21pm 14.7 7.3 11.3 80 1.8 WNW 41 52 22 28 1005.1 1005.1 2.2
14/12:19pm 15.9 8.5 11.3 74 2.5 NW 41 52 22 28 1005.2 1005.2 1.6
14/12:00pm 18.4 11.2 11.9 66 3.6 NW 41 56 22 30 1004.9 1004.9 1.6
14/11:30am 16.9 10.5 12.0 73 2.7 NW 37 52 20 28 1005.0 1005.0 1.4
14/11:00am 14.7 9.2 11.7 82 1.6 NW 32 50 17 27 1005.0 1005.0 1.4
14/10:54am 14.2 8.4 11.4 83 1.5 NW 33 43 18 23 1005.0 1005.0 1.4
14/10:35am 14.0 7.9 11.7 86 1.2 WNW 35 56 19 30 1005.3 1005.3 1.4
14/10:33am 14.4 9.0 12.1 86 1.2 WNW 32 50 17 27 1005.2 1005.2 1.2
14/10:30am 14.4 9.4 12.3 87 1.1 WNW 30 44 16 24 1005.2 1005.2 1.2
14/10:29am 14.3 9.3 12.2 87 1.1 WNW 30 44 16 24 1005.2 1005.2 1.2
14/10:07am 14.1 6.4 11.6 85 1.3 WNW 43 57 23 31 1005.1 1005.1 0.6
14/10:06am 14.2 6.5 11.4 83 1.5 WNW 43 57 23 31 1005.1 1005.1 0.6
14/10:05am 14.4 6.6 11.2 81 1.7 WNW 43 57 23 31 1005.1 1005.1 0.4
14/10:00am 15.5 8.7 10.5 72 2.6 NW 37 54 20 29 1004.7 1004.7 0.2
14/09:58am 15.6 9.6 10.8 73 2.6 NW 33 54 18 29 1004.6 1004.6 0.2
14/09:30am 16.0 9.4 10.1 68 3.1 WNW 35 46 19 25 1004.7 1004.7 0.0
14/09:00am 15.4 10.1 11.2 76 2.3 WNW 30 43 16 23 1004.7 1004.7 2.0
14/08:57am 15.5 10.8 11.9 79 2.0 WNW 28 43 15 23 1004.8 1004.8 2.0
14/08:45am 14.4 11.9 12.4 88 1.1 NW 17 22 9 12 1004.8 1004.8 2.0
14/08:30am 13.7 7.8 10.3 80 1.8 WNW 32 44 17 24 1004.7 1004.7 2.0
14/08:27am 14.5 8.8 11.1 80 1.8 WNW 32 44 17 24 1004.6 1004.6 1.8
14/08:00am 16.0 9.9 9.7 66 3.3 WNW 32 44 17 24 1004.4 1004.4 1.2
14/07:30am 15.8 10.6 10.3 70 2.9 WNW 28 39 15 21 1004.3 1004.3 1.2
14/07:00am 15.3 10.2 10.5 73 2.5 WNW 28 39 15 21 1004.1 1004.1 1.2
14/06:39am 15.0 9.0 10.0 72 2.6 WNW 32 50 17 27 1003.8 1003.8 1.2
14/06:30am 15.2 8.2 9.8 70 2.8 WNW 37 52 20 28 1003.8 1003.8 1.2
14/06:00am 16.1 8.9 10.6 70 2.9 WNW 39 56 21 30 1003.1 1003.1 1.2
14/05:53am 16.2 10.2 10.7 70 2.9 WNW 33 52 18 28 1003.2 1003.2 1.2
14/05:30am 16.1 10.2 10.6 70 2.9 NW 32 44 17 24 1003.0 1003.0 1.2
14/05:00am 15.8 10.6 10.1 69 3.0 NW 28 39 15 21 1003.2 1003.2 1.2
14/04:30am 15.4 10.0 9.5 68 3.1 NW 28 41 15 22 1003.4 1003.4 1.2
14/04:00am 15.7 9.5 9.4 66 3.3 WNW 32 41 17 22 1003.7 1003.7 1.2
14/03:30am 16.0 8.9 9.7 66 3.3 NW 37 48 20 26 1003.8 1003.8 1.2
14/03:00am 15.5 9.6 10.5 72 2.7 NW 32 44 17 24 1003.8 1003.8 1.2
14/02:30am 14.9 11.1 11.1 78 2.0 NW 22 30 12 16 1004.1 1004.1 1.2
14/02:00am 13.4 12.2 11.6 89 1.0 N 9 17 5 9 1004.4 1004.4 1.2
14/01:30am 13.6 11.6 11.5 87 1.1 NW 13 19 7 10 1004.6 1004.6 1.2
14/01:00am 14.8 10.3 11.4 80 1.8 NW 26 43 14 23 1004.9 1004.9 1.0
14/12:30am 12.9 11.3 10.1 83 1.4 N 9 15 5 8 1004.9 1004.9 1.0
14/12:00am 12.9 10.4 9.7 81 1.6 NNE 13 17 7 9 1005.3 1005.3 1.0
 
Date/Time
EDT
Temp
°C
App
Temp
°C
Dew
Point
Rel
Hum
%
Delta-T
°C
Wind Press
QNH
hPa
Press
MSL
hPa
Rain
since 9 am
mm
Dir
 
Spd
km/h
Gust
km/h
Spd
kts
Gust
kts
13/11:30pm 14.4 10.6 9.2 71 2.7 NW 19 26 10 14 1005.6 1005.6 1.0
13/11:00pm 14.7 10.9 9.1 69 2.9 NW 19 26 10 14 1006.0 1006.0 1.0
13/10:30pm 14.4 10.8 8.4 67 3.0 WNW 17 24 9 13 1006.2 1006.2 1.0
13/10:00pm 15.0 10.6 8.9 67 3.1 WNW 22 35 12 19 1006.5 1006.5 1.0
13/09:30pm 15.4 11.4 10.4 72 2.6 W 22 32 12 17 1006.1 1006.1 1.0
13/09:00pm 15.3 12.5 11.3 77 2.2 W 17 28 9 15 1005.6 1005.6 1.0
13/08:30pm 15.4 13.2 12.0 80 1.8 WSW 15 20 8 11 1005.1 1005.1 1.0
13/08:00pm 16.0 14.0 12.6 80 1.9 W 15 22 8 12 1004.8 1004.8 1.0
13/07:30pm 16.2 13.9 12.9 81 1.8 W 17 24 9 13 1004.6 1004.6 1.0
13/07:00pm 16.3 15.1 14.0 86 1.3 W 13 19 7 10 1004.4 1004.4 1.0
13/06:39pm 16.2 14.8 14.4 89 1.0 WSW 15 20 8 11 1004.5 1004.5 1.0
13/06:30pm 16.3 14.6 14.8 91 0.9 W 17 28 9 15 1004.5 1004.5 1.0
13/06:14pm 16.4 15.2 15.1 92 0.8 NW 15 20 8 11 1004.4 1004.4 0.8
13/06:00pm 16.5 15.4 15.2 92 0.8 NW 15 20 8 11 1004.4 1004.4 0.8
13/05:34pm 16.1 14.4 14.8 92 0.7 W 17 24 9 13 1004.3 1004.3 0.8
13/05:30pm 16.1 14.0 14.8 92 0.7 W 19 30 10 16 1004.2 1004.2 0.8
13/05:11pm 15.6 11.6 14.1 91 0.8 W 28 35 15 19 1004.3 1004.3 0.4
13/05:00pm 16.1 11.9 14.6 91 0.9 W 30 39 16 21 1004.2 1004.2 0.4
13/04:52pm 17.2 14.1 15.7 91 0.9 W 26 33 14 18 1004.2 1004.2 0.2
13/04:38pm 17.9 14.0 15.5 86 1.4 NW 30 41 16 22 1004.2 1004.2 0.0
13/04:30pm 18.9 14.6 15.8 82 1.8 NW 33 43 18 23 1004.1 1004.1 0.0
13/04:00pm 21.1 16.5 14.7 67 3.8 NW 32 41 17 22 1004.0 1004.0 0.0
13/03:30pm 21.1 16.2 15.4 70 3.4 NW 35 48 19 26 1004.3 1004.3 0.0
13/03:00pm 20.9 16.3 15.0 69 3.5 NW 33 43 18 23 1004.6 1004.6 0.0
13/02:30pm 20.6 15.8 14.7 69 3.5 NW 33 44 18 24 1004.9 1004.9 0.0
13/02:00pm 21.4 15.9 14.8 66 3.9 NNW 37 48 20 26 1005.0 1005.0 0.0
13/01:30pm 21.2 16.1 13.6 62 4.4 NW 33 43 18 23 1005.0 1005.0 0.0
13/01:00pm 21.2 16.0 14.6 66 3.9 NW 35 50 19 27 1005.3 1005.3 0.0
13/12:30pm 20.3 15.4 13.7 66 3.8 NW 32 39 17 21 1005.3 1005.3 0.0
13/12:00pm 20.1 15.0 13.1 64 4.0 NW 32 41 17 22 1005.6 1005.6 0.0
13/11:30am 19.5 15.2 13.2 67 3.6 NW 28 33 15 18 1005.8 1005.8 0.0
13/11:00am 19.7 15.4 13.2 66 3.7 NW 28 37 15 20 1006.0 1006.0 0.0
13/10:30am 21.1 15.9 12.8 59 4.7 NW 32 41 17 22 1006.2 1006.2 0.0
13/10:00am 19.9 15.3 13.4 66 3.7 NNW 30 39 16 21 1006.2 1006.2 0.0
13/09:30am 19.6 15.6 14.2 71 3.1 NNW 28 35 15 19 1006.4 1006.4 0.0
13/09:00am 18.4 15.7 14.7 79 2.2 NNW 22 32 12 17 1006.3 1006.3 0.0
13/08:34am 17.4 14.5 14.1 81 1.9 NNW 22 30 12 16 1006.5 1006.5 0.0
13/08:30am 17.4 14.9 14.1 81 1.9 NNW 20 30 11 16 1006.5 1006.5 0.0
13/08:00am 16.6 15.6 13.3 81 1.9 NNW 11 15 6 8 1006.7 1006.7 0.0
13/07:30am 16.5 14.5 12.8 79 2.1 N 15 19 8 10 1006.5 1006.5 0.0
13/07:00am 16.2 15.0 12.7 80 1.9 N 11 15 6 8 1006.3 1006.3 0.0
13/06:30am 16.2 13.4 12.7 80 1.9 N 19 26 10 14 1006.3 1006.3 0.0
13/06:00am 15.8 13.7 12.4 80 1.9 N 15 22 8 12 1006.4 1006.4 0.0
13/05:30am 15.3 13.1 12.2 82 1.7 NNW 15 19 8 10 1006.7 1006.7 0.0
13/05:00am 14.4 12.8 11.6 83 1.5 N 11 17 6 9 1006.7 1006.7 0.0
13/04:30am 14.4 12.8 11.7 84 1.5 NNE 11 19 6 10 1006.7 1006.7 0.0
13/04:00am 13.7 11.7 11.6 87 1.1 NNE 13 19 7 10 1006.8 1006.8 0.0
13/03:30am 14.3 11.8 12.2 87 1.1 N 17 22 9 12 1007.4 1007.4 0.0
13/03:00am 14.7 12.4 12.9 89 1.0 N 17 22 9 12 1007.8 1007.8 0.0
13/02:30am 14.3 12.4 12.9 91 0.8 NNW 15 20 8 11 1008.2 1008.2 0.0
13/02:00am 14.4 12.9 13.1 92 0.7 N 13 17 7 9 1008.4 1008.4 0.0
13/01:30am 14.1 12.9 12.8 92 0.7 NNE 11 15 6 8 1008.7 1008.7 0.0
13/01:00am 13.8 12.8 12.4 91 0.8 N 9 13 5 7 1009.4 1009.4 0.0
13/12:52am 13.8 12.9 12.5 92 0.7 NNE 9 13 5 7 1009.5 1009.5 0.0
13/12:30am 13.1 12.2 11.5 90 0.8 N 7 11 4 6 1009.9 1009.9 0.0
13/12:00am 13.4 12.5 11.5 88 1.0 N 7 11 4 6 1009.9 1009.9 0.0
 
Date/Time
EDT
Temp
°C
App
Temp
°C
Dew
Point
Rel
Hum
%
Delta-T
°C
Wind Press
QNH
hPa
Press
MSL
hPa
Rain
since 9 am
mm
Dir
 
Spd
km/h
Gust
km/h
Spd
kts
Gust
kts
12/11:34pm 14.1 13.0 12.1 88 1.1 NNE 9 11 5 6 1010.0 1010.0 0.0
12/11:30pm 14.1 13.0 12.1 88 1.1 NNE 9 11 5 6 1010.0 1010.0 0.0
12/11:00pm 14.1 13.4 12.1 88 1.1 N 7 9 4 5 1010.4 1010.4 0.0
12/10:55pm 14.1 13.4 12.1 88 1.1 N 7 9 4 5 1010.5 1010.5 0.0
12/10:30pm 14.1 13.3 11.6 85 1.3 N 7 11 4 6 1010.7 1010.7 0.0
12/10:00pm 14.9 14.4 12.2 84 1.5 NNE 6 11 3 6 1010.9 1010.9 0.0
12/09:30pm 15.2 14.3 12.5 84 1.5 NE 9 9 5 5 1011.2 1011.2 0.0
12/09:00pm 15.4 15.0 12.3 82 1.7 NW 6 7 3 4 1011.3 1011.3 0.0
12/08:30pm 16.3 15.8 12.5 78 2.1 NNW 7 9 4 5 1011.3 1011.3 0.0
12/08:00pm 17.0 16.1 12.7 76 2.4 NW 9 11 5 6 1011.5 1011.5 0.0
12/07:30pm 17.7 17.4 13.2 75 2.5 WNW 7 9 4 5 1011.7 1011.7 0.0
12/07:00pm 18.1 17.7 13.0 72 2.9 W 7 11 4 6 1011.8 1011.8 0.0
12/06:30pm 18.5 17.6 12.7 69 3.2 WNW 9 15 5 8 1012.0 1012.0 0.0
12/06:00pm 18.7 17.5 12.7 68 3.4 WNW 11 17 6 9 1012.1 1012.1 0.0
12/05:30pm 20.0 18.9 13.0 64 4.0 W 11 17 6 9 1012.1 1012.1 0.0
12/05:00pm 20.5 18.7 12.2 59 4.7 W 13 20 7 11 1012.2 1012.2 0.0
12/04:30pm 21.1 19.0 12.5 58 4.9 WSW 15 24 8 13 1012.6 1012.6 0.0
12/04:00pm 21.6 18.6 12.7 57 5.1 W 20 26 11 14 1012.9 1012.9 0.0
12/03:30pm 22.6 20.3 13.1 55 5.5 WSW 17 22 9 12 1012.6 1012.6 0.0
12/03:00pm 22.7 20.1 13.2 55 5.5 W 19 26 10 14 1012.9 1012.9 0.0
12/02:30pm 22.7 19.8 12.9 54 5.6 W 20 28 11 15 1013.3 1013.3 0.0
12/02:00pm 23.3 21.6 13.5 54 5.7 WSW 15 20 8 11 1013.7 1013.7 0.0
12/01:30pm 22.1 19.3 12.6 55 5.4 WSW 19 24 10 13 1014.2 1014.2 0.0
12/01:00pm 21.8 18.8 12.4 55 5.3 WSW 20 28 11 15 1014.4 1014.4 0.0
12/12:30pm 21.5 20.7 12.9 58 4.9 S 9 17 5 9 1014.8 1014.8 0.0
12/12:00pm 20.8 19.6 12.8 60 4.5 SSE 11 15 6 8 1015.2 1015.2 0.0
12/11:30am 20.2 18.8 12.2 60 4.5 SSE 11 17 6 9 1016.0 1015.9 0.0
12/11:00am 18.9 17.7 11.5 62 4.1 S 9 15 5 8 1016.5 1016.4 0.0
12/10:30am 18.2 17.2 12.2 68 3.3 SSE 9 15 5 8 1016.9 1016.8 0.0
12/10:00am 17.7 16.8 11.3 66 3.5 SSE 7 9 4 5 1017.4 1017.3 0.0
12/09:30am 16.5 15.7 11.2 71 2.9 SE 6 9 3 5 1017.6 1017.5 0.0
12/09:00am 15.3 14.5 11.7 79 1.9 ESE 7 9 4 5 1017.8 1017.7 0.0
12/08:30am 12.8 11.8 10.3 85 1.3 NW 6 7 3 4 1017.9 1017.8 0.0
12/08:00am 11.4 9.9 9.1 86 1.1 NNE 7 11 4 6 1017.5 1017.4 0.0
12/07:30am 10.2 8.2 8.5 89 0.8 NNE 9 11 5 6 1017.4 1017.3 0.0
12/07:00am 9.6 7.4 7.9 89 0.8 NNE 9 11 5 6 1017.1 1017.0 0.0
12/06:30am 9.6 7.8 7.9 89 0.8 NNE 7 9 4 5 1016.8 1016.7 0.0
12/06:00am 10.0 7.9 8.1 88 0.9 NNE 9 11 5 6 1016.4 1016.3 0.0
12/05:30am 9.9 8.1 8.0 88 0.9 NE 7 11 4 6 1016.6 1016.5 0.0
12/05:00am 9.8 8.2 8.1 89 0.8 NE 6 7 3 4 1016.8 1016.7 0.0
12/04:30am 9.6 7.7 7.5 87 1.0 NE 7 9 4 5 1017.0 1016.9 0.0
12/04:00am 10.3 8.8 8.4 88 0.9 NNE 6 7 3 4 1017.2 1017.1 0.0
12/03:30am 10.1 8.5 7.9 86 1.1 ENE 6 6 3 3 1017.6 1017.5 0.0
12/03:00am 10.5 9.4 8.3 86 1.1 ENE 4 7 2 4 1017.7 1017.6 0.0
12/02:30am 10.9 9.1 8.1 83 1.4 ENE 7 9 4 5 1017.9 1017.8 0.0
12/02:00am 11.5 9.9 8.7 83 1.4 E 7 9 4 5 1018.1 1018.0 0.0
12/01:30am 12.3 10.8 9.3 82 1.5 ENE 7 9 4 5 1018.4 1018.3 0.0
12/01:00am 12.9 10.1 9.9 82 1.5 ESE 15 19 8 10 1018.3 1018.2 0.0
12/12:30am 13.2 10.3 9.8 80 1.7 SE 15 19 8 10 1018.6 1018.5 0.0
12/12:00am 13.4 10.5 9.8 79 1.8 SE 15 19 8 10 1018.8 1018.7 0.0

Other Formats:

Comma delimited format used in spreadsheet applications
http://www.bom.gov.au/fwo/IDT60801/IDT60801.94956.axf

JavaScript Object Notation format (JSON) in row-major order
http://www.bom.gov.au/fwo/IDT60801/IDT60801.94956.json